Terminal Aerodrome Forecast
Issued by NWS

Home | Current Version | Previous Version | Graphics & Text | Print | Product List | Glossary On
Versions: 1 2 3 4 5 6 7 8 9 10 11 12 13 14 15 16 17 18 19 20 21 22 23 24 25 26
000
FTUS43 KGRB 211412 AAA
TAFATW
TAF AMD
KATW 211412Z 2114/2212 06006KT 1 1/2SM BR OVC002
      TEMPO 2114/2116 4SM BR BKN005
     FM211600 03008KT P6SM SCT008 BKN015
     FM212100 10005KT P6SM BKN030
     FM220000 10005KT P6SM FEW030 BKN120
     FM220500 16005KT P6SM BKN100
     FM220900 18005KT 4SM BR SCT120=

USA.gov is the U.S. government's official web portal to all federal, state and local government web resources and services.